Flight Track Log - Related Links

Times and Time Zones

All times are in EDT time to prevent confusion due to time zone crossing. See the SWA2147 flight status page for this flight to view local times or setup timezone preferences in your user account.

Time Position Orientation Groundspeed Altitude Reporting Facility
EDT Latitude Longitude Course Direction KTS MPH feet Rate Location/Type
Sat 01:25:24 PM 33.9417 -118.4667 240° Southwest 187 215 1,700  Level Los Angeles Center
Sat 01:26:26 PM 33.9100 -118.5328 240° Southwest 233 268 3,900 2,274 Climbing Los Angeles Center
Sat 01:27:28 PM 33.8397 -118.5639 200° South 284 327 6,400 2,371 Climbing Los Angeles Center
Sat 01:28:30 PM 33.7678 -118.5417 166° South 296 341 8,800 2,274 Climbing Los Angeles Center
Sat 01:29:32 PM 33.6742 -118.4928 157° South 330 380 11,100 2,323 Climbing Los Angeles Center
Sat 01:30:34 PM 33.6144 -118.4019 128° Southeast 351 404 13,600 2,081 Climbing Los Angeles Center
Sat 01:31:36 PM 33.5528 -118.3069 128° Southeast 365 420 15,400 1,152 Climbing Los Angeles Center
Sat 01:32:39 PM 33.5156 -118.1869 110° East 385 443 16,000 720 Climbing Los Angeles Center
Sat 01:33:41 PM 33.5089 -118.0594 94° East 391 450 16,900 1,548 Climbing Los Angeles Center
Sat 01:34:43 PM 33.5042 -117.9014 92° East 397 457 19,200 1,935 Climbing Los Angeles Center
Sat 01:35:45 PM 33.4647 -117.7750 110° East 408 470 20,900 1,597 Climbing Los Angeles Center
Sat 01:36:47 PM 33.4267 -117.6458 109° East 412 474 22,500 1,452 Climbing Los Angeles Center
Sat 01:37:49 PM 33.3883 -117.5100 109° East 427 491 23,900 1,355 Climbing Los Angeles Center
Sat 01:38:51 PM 33.3786 -117.3625 94° East 445 512 25,300 1,403 Climbing Los Angeles Center
Sat 01:39:53 PM 33.3617 -117.1844 96° East 450 518 26,800 1,306 Climbing Los Angeles Center
Sat 01:40:55 PM 33.3464 -117.0278 97° East 461 531 28,000 1,113 Climbing Los Angeles Center
Sat 01:41:57 PM 33.3286 -116.8725 98° East 470 541 29,100 1,258 Climbing Los Angeles Center
Sat 01:42:59 PM 33.3139 -116.7150 96° East 475 547 30,600 1,306 Climbing Los Angeles Center
Sat 01:44:01 PM 33.3011 -116.5606 96° East 468 539 31,800 912 Climbing Los Angeles Center
Sat 01:45:04 PM 33.2839 -116.4028 97° East 476 548 32,500 576 Climbing Los Angeles Center
Sat 01:46:06 PM 33.2681 -116.2450 97° East 476 548 33,000 242 Climbing Los Angeles Center
Sat 01:47:08 PM 33.2475 -116.0536 97° East 479 551 33,000  Level Los Angeles Center
Sat 01:48:10 PM 33.2281 -115.8942 98° East 481 554 33,000  Level Los Angeles Center
Sat 01:49:12 PM 33.2119 -115.7322 97° East 489 563 33,000  Level Los Angeles Center
Sat 01:50:14 PM 33.1989 -115.5703 95° East 489 563 33,000 -48 Level Los Angeles Center
Sat 01:51:16 PM 33.1869 -115.4069 95° East 492 566 32,900  Descending Los Angeles Center
Sat 01:52:18 PM 33.1750 -115.2447 95° East 491 565 33,000 48 Climbing Los Angeles Center
Sat 01:53:20 PM 33.1622 -115.0831 95° East 489 563 33,000  Level Los Angeles Center
Sat 01:54:22 PM 33.1467 -114.8922 96° East 484 557 33,000  Level Los Angeles Center
Sat 01:55:24 PM 33.1353 -114.7331 95° East 481 554 33,000  Level Los Angeles Center
Sat 01:56:26 PM 33.1217 -114.5739 96° East 481 554 33,000  Level Los Angeles Center
Sat 01:57:29 PM 33.1089 -114.4142 95° East 484 557 33,000  Level Los Angeles Center
Sat 01:58:10 PM 33.1008 -114.2989 95° East 482 555 33,000  Level Albuquerque Center
Sat 01:59:11 PM 33.0864 -114.1417 96° East 479 551 33,000  Level Albuquerque Center
Sat 02:00:13 PM 33.0742 -113.9825 95° East 482 555 33,000  Level Albuquerque Center
Sat 02:01:15 PM 33.0592 -113.8239 96° East 482 555 33,000  Level Albuquerque Center
Sat 02:02:17 PM 33.0447 -113.6642 96° East 485 558 33,000 -49 Level Albuquerque Center
Sat 02:03:18 PM 33.0281 -113.4733 96° East 484 557 32,900 -49 Descending Albuquerque Center
Sat 02:04:20 PM 33.0133 -113.3136 96° East 483 556 32,900 48 Level Albuquerque Center
Sat 02:05:22 PM 32.9989 -113.1542 96° East 483 556 33,000 48 Climbing Albuquerque Center
Sat 02:06:24 PM 32.9836 -112.9964 97° East 480 552 33,000  Level Albuquerque Center
Sat 02:07:25 PM 32.9681 -112.8372 97° East 480 552 33,000  Level Albuquerque Center
Sat 02:08:27 PM 32.9519 -112.6767 97° East 483 556 33,000  Level Albuquerque Center
Sat 02:09:29 PM 32.9361 -112.5161 97° East 485 558 33,000  Level Albuquerque Center
Sat 02:10:30 PM 32.9197 -112.3556 97° East 487 560 33,000  Level Albuquerque Center
Sat 02:11:32 PM 32.9031 -112.1825 96° East 489 563 33,000  Level Albuquerque Center
Sat 02:12:34 PM 32.8867 -112.0231 97° East 489 563 33,000  Level Albuquerque Center
Sat 02:13:35 PM 32.8714 -111.8642 96° East 489 563 33,000  Level Albuquerque Center
Sat 02:14:37 PM 32.8536 -111.7056 98° East 488 562 33,000  Level Albuquerque Center
Sat 02:15:39 PM 32.8339 -111.5158 97° East 485 558 33,000  Level Albuquerque Center
Sat 02:16:40 PM 32.8175 -111.3581 97° East 485 558 33,000  Level Albuquerque Center
Sat 02:17:42 PM 32.8003 -111.2017 97° East 481 554 33,000  Level Albuquerque Center
Sat 02:18:43 PM 32.7819 -111.0442 98° East 483 556 33,000  Level Albuquerque Center
Sat 02:19:45 PM 32.7642 -110.8878 98° East 481 554 33,000  Level Albuquerque Center
Sat 02:20:47 PM 32.7472 -110.7314 97° East 479 551 33,000  Level Albuquerque Center
Sat 02:21:48 PM 32.7261 -110.5514 98° East 477 549 33,000 439 Level Albuquerque Center
Sat 02:22:50 PM 32.7092 -110.3967 97° East 479 551 33,900 823 Climbing Albuquerque Center
Sat 02:23:52 PM 32.6917 -110.2444 98° East 473 544 34,700 537 Climbing Albuquerque Center
Sat 02:24:53 PM 32.6728 -110.0919 98° East 473 544 35,000 146 Climbing Albuquerque Center
Sat 02:25:55 PM 32.6547 -109.9367 98° East 478 550 35,000  Level Albuquerque Center
Sat 02:26:56 PM 32.6317 -109.7511 98° East 479 551 35,000  Level Albuquerque Center
Sat 02:27:58 PM 32.6117 -109.5961 99° East 483 556 35,000  Level Albuquerque Center
Sat 02:28:59 PM 32.5931 -109.4439 98° East 479 551 35,000  Level Albuquerque Center
Sat 02:30:01 PM 32.5725 -109.2889 99° East 480 552 35,000  Level Albuquerque Center
Sat 02:31:03 PM 32.5536 -109.1367 98° East 478 550 35,000  Level Albuquerque Center
Sat 02:32:04 PM 32.5306 -108.9556 99° East 472 543 35,000  Level Albuquerque Center
Sat 02:33:06 PM 32.5111 -108.8061 99° East 469 540 35,000  Level Albuquerque Center
Sat 02:34:07 PM 32.4917 -108.6564 99° East 468 539 35,000  Level Albuquerque Center
Sat 02:35:09 PM 32.4719 -108.5061 99° East 468 539 35,000  Level Albuquerque Center
Sat 02:36:11 PM 32.4528 -108.3561 99° East 467 537 35,000  Level Albuquerque Center
Sat 02:37:12 PM 32.4294 -108.1908 99° East 465 535 35,000  Level Albuquerque Center
Sat 02:38:14 PM 32.4097 -108.0400 99° East 465 535 35,000  Level Albuquerque Center
Sat 02:39:15 PM 32.3892 -107.8906 99° East 464 534 35,000  Level Albuquerque Center
Sat 02:40:17 PM 32.3647 -107.7119 99° East 461 531 35,000 -48 Level Albuquerque Center
Sat 02:41:19 PM 32.3450 -107.5639 99° East 460 529 34,900  Descending Albuquerque Center
Sat 02:42:20 PM 32.3225 -107.4081 100° East 457 526 35,000 49 Climbing Albuquerque Center
Sat 02:43:22 PM 32.3008 -107.2608 100° East 459 528 35,000 49 Level Albuquerque Center
Sat 02:44:23 PM 32.2833 -107.1061 98° East 458 527 35,100  Climbing Albuquerque Center
Sat 02:45:25 PM 32.2586 -106.9456 100° East 461 531 35,000 -49 Descending Albuquerque Center
Sat 02:46:26 PM 32.2381 -106.8022 100° East 458 527 35,000  Level Albuquerque Center
Sat 02:47:28 PM 32.2167 -106.6536 100° East 460 529 35,000  Level Albuquerque Center
Sat 02:48:30 PM 32.1947 -106.5072 100° East 457 526 35,000  Level Albuquerque Center
Sat 02:49:31 PM 32.1719 -106.3581 100° East 462 532 35,000  Level Albuquerque Center
Sat 02:50:33 PM 32.1497 -106.2081 100° East 465 535 35,000  Level Albuquerque Center
Sat 02:51:35 PM 32.1272 -106.0589 100° East 464 534 35,000  Level Albuquerque Center
Sat 02:52:36 PM 32.0994 -105.8911 101° East 464 534 35,000 -49 Level Albuquerque Center
Sat 02:53:38 PM 32.0775 -105.7411 100° East 464 534 34,900  Descending Albuquerque Center
Sat 02:54:40 PM 32.0542 -105.5903 100° East 467 537 35,000 49 Climbing Albuquerque Center
Sat 02:55:41 PM 32.0300 -105.4414 101° East 464 534 35,000  Level Albuquerque Center
Sat 02:56:43 PM 32.0064 -105.2917 100° East 464 534 35,000  Level Albuquerque Center
Sat 02:57:45 PM 31.9783 -105.1111 100° East 466 536 35,000  Level Albuquerque Center
Sat 02:58:46 PM 31.9544 -104.9608 101° East 466 536 35,000  Level Albuquerque Center
Sat 02:59:48 PM 31.9289 -104.8092 101° East 469 540 35,000  Level Albuquerque Center
Sat 03:00:50 PM 31.9050 -104.6589 101° East 467 537 35,000  Level Albuquerque Center
Sat 03:01:51 PM 31.8806 -104.5089 101° East 467 537 35,000  Level Albuquerque Center
Sat 03:02:53 PM 31.8564 -104.3578 101° East 469 540 35,000  Level Albuquerque Center
Sat 03:03:54 PM 31.8300 -104.2061 102° East 470 541 35,000  Level Albuquerque Center
Sat 03:04:56 PM 31.8053 -104.0558 101° East 470 541 35,000  Level Albuquerque Center
Sat 03:05:57 PM 31.7803 -103.9069 101° East 467 537 35,000  Level Albuquerque Center
Sat 03:06:59 PM 31.7494 -103.7358 102° East 467 537 35,000  Level Albuquerque Center
Sat 03:08:01 PM 31.7231 -103.5864 102° East 467 537 35,000  Level Albuquerque Center
Sat 03:09:02 PM 31.6983 -103.4383 101° East 466 536 35,000  Level Albuquerque Center
Sat 03:10:04 PM 31.6714 -103.2900 102° East 467 537 35,000  Level Albuquerque Center
Sat 03:11:05 PM 31.6444 -103.1414 102° East 467 537 35,000  Level Albuquerque Center
Sat 03:12:07 PM 31.6136 -102.9642 102° East 466 536 35,000  Level Albuquerque Center
Sat 03:13:08 PM 31.5875 -102.8175 102° East 463 533 35,000  Level Albuquerque Center
Sat 03:14:10 PM 31.5611 -102.6706 102° East 463 533 35,000  Level Albuquerque Center
Sat 03:15:11 PM 31.5344 -102.5228 102° East 465 535 35,000  Level Albuquerque Center
Sat 03:16:13 PM 31.5075 -102.3767 102° East 462 532 35,000  Level Albuquerque Center
Sat 03:17:14 PM 31.4806 -102.2297 102° East 463 533 35,000  Level Albuquerque Center
Sat 03:18:16 PM 31.4533 -102.0831 102° East 463 533 35,000  Level Albuquerque Center
Sat 03:19:17 PM 31.4208 -101.9075 102° East 463 533 35,000  Level Albuquerque Center
Sat 03:20:02 PM 31.4036 -101.8094 102° East 463 533 35,000  Level Houston Center
Sat 03:21:04 PM 31.3756 -101.6622 103° East 464 534 35,000  Level Houston Center
Sat 03:22:06 PM 31.3472 -101.5142 103° East 465 535 35,000  Level Houston Center
Sat 03:23:07 PM 31.3192 -101.3667 103° East 465 535 35,000  Level Houston Center
Sat 03:24:09 PM 31.2858 -101.1883 102° East 467 537 35,000  Level Houston Center
Sat 03:25:11 PM 31.2569 -101.0422 103° East 464 534 35,000  Level Houston Center
Sat 03:26:13 PM 31.2275 -100.8947 103° East 465 535 35,000  Level Houston Center
Sat 03:27:14 PM 31.1978 -100.7475 103° East 465 535 35,000  Level Houston Center
Sat 03:28:16 PM 31.1694 -100.5986 103° East 468 539 35,000  Level Houston Center
Sat 03:29:18 PM 31.1394 -100.4511 103° East 468 539 35,000  Level Houston Center
Sat 03:30:19 PM 31.1106 -100.3031 103° East 469 540 35,000  Level Houston Center
Sat 03:31:21 PM 31.0817 -100.1547 103° East 468 539 35,000  Level Houston Center
Sat 03:32:22 PM 31.0539 -100.0064 102° East 468 539 35,000  Level Houston Center
Sat 03:33:24 PM 31.0314 -99.8261 98° East 468 539 35,000  Level Houston Center
Sat 03:34:26 PM 31.0128 -99.6756 98° East 468 539 35,000  Level Houston Center
Sat 03:35:27 PM 30.9933 -99.5258 99° East 467 537 35,000  Level Houston Center
Sat 03:36:29 PM 30.9733 -99.3761 99° East 467 537 35,000  Level Houston Center
Sat 03:37:31 PM 30.9531 -99.2275 99° East 466 536 35,000  Level Houston Center
Sat 03:38:32 PM 30.9308 -99.0628 99° East 467 537 35,000  Level Houston Center
Sat 03:39:34 PM 30.9100 -98.9125 99° East 466 536 35,000  Level Houston Center
Sat 03:40:36 PM 30.8900 -98.7628 99° East 465 535 35,000  Level Houston Center
Sat 03:41:38 PM 30.8692 -98.6117 99° East 466 536 35,000  Level Houston Center
Sat 03:42:39 PM 30.8478 -98.4625 99° East 465 535 35,000  Level Houston Center
Sat 03:43:41 PM 30.8275 -98.3131 99° East 463 533 35,000  Level Houston Center
Sat 03:44:43 PM 30.8053 -98.1619 100° East 469 540 35,000  Level Houston Center
Sat 03:45:44 PM 30.7800 -97.9883 100° East 465 535 35,000 -244 Level Houston Center
Sat 03:46:46 PM 30.7583 -97.8389 100° East 467 537 34,500 -706 Descending Houston Center
Sat 03:48:00 PM 30.7325 -97.6672 100° East 461 531 33,400 -933 Descending Houston Center
Sat 03:49:01 PM 30.7111 -97.5217 100° East 458 527 32,400 -976 Descending Houston Center
Sat 03:50:03 PM 30.6794 -97.3803 105° East 456 525 31,400 -1,561 Descending Houston Center
Sat 03:51:04 PM 30.6261 -97.2481 115° Southeast 452 520 29,200 -2,146 Descending Houston Center
Sat 03:52:06 PM 30.5753 -97.1203 115° Southeast 440 506 27,000 -2,244 Descending Houston Center
Sat 03:53:07 PM 30.5200 -96.9781 114° Southeast 418 481 24,600 -2,146 Descending Houston Center
Sat 03:54:09 PM 30.4731 -96.8600 115° Southeast 403 464 22,600 -1,902 Descending Houston Center
Sat 03:55:10 PM 30.4272 -96.7489 116° Southeast 386 444 20,700 -1,854 Descending Houston Center
Sat 03:56:12 PM 30.3842 -96.6408 115° Southeast 371 427 18,800 -1,790 Descending Houston Center
Sat 03:57:14 PM 30.3417 -96.5378 116° Southeast 353 406 17,000 -1,805 Descending Houston Center
Sat 03:58:15 PM 30.3008 -96.4350 115° Southeast 349 402 15,100 -1,854 Descending Houston Center
Sat 03:59:17 PM 30.2583 -96.3372 117° Southeast 340 391 13,200 -1,742 Descending Houston Center
Sat 04:00:19 PM 30.2200 -96.2414 115° Southeast 328 377 11,500 -1,073 Descending Houston Center
Sat 04:01:20 PM 30.1508 -96.1781 142° Southeast 323 372 11,000 -242 Descending Houston Center
Sat 04:02:23 PM 30.0519 -96.1264 156° South 319 367 11,000  Level Houston Center
Sat 04:03:24 PM 30.0003 -96.0725 138° Southeast 309 356 11,000  Level Houston Center
Sat 04:04:25 PM 29.9292 -95.9919 136° Southeast 312 359 11,000  Level Houston Center
Sat 04:05:27 PM 29.8664 -95.9203 135° Southeast 316 364 11,000 -677 Level Houston Center
Sat 04:06:29 PM 29.8067 -95.8525 135° Southeast 305 351 9,600 -1,415 Descending Houston Center
Sat 04:07:30 PM 29.7833 -95.7658 107° East 296 341 8,100 -1,659 Descending Houston Center
Sat 04:08:32 PM 29.7697 -95.6781 100° East 279 321 6,200 -1,742 Descending Houston Center
Sat 04:09:34 PM 29.7533 -95.5778 101° East 268 308 4,500 -1,415 Descending Houston Center
Sat 04:10:35 PM 29.7400 -95.4986 101° East 256 295 3,300 -927 Descending Houston Center
Sat 04:11:37 PM 29.7269 -95.4242 101° East 246 283 2,600 -677 Descending Houston Center
Sat 04:12:39 PM 29.7142 -95.3619 103° East 223 257 1,900 -829 Descending Houston Center
Sat 04:13:40 PM 29.6828 -95.3242 134° Southeast 185 213 900 -780 Descending Houston Center
Sat 04:14:42 PM 29.6567 -95.2931 134° Southeast 155 178 300 -387 Descending Houston Center
Sat 04:15:44 PM 29.6297 -95.2608 134° Southeast 152 175 100 -194 Descending Houston Center

Login

Don't have an account? Register now (free) for customized features, flight alerts, and more!